sensor_id;sensor_type;location;lat;lon;timestamp;P1;durP1;ratioP1;P2;durP2;ratioP2
32038;SDS011;18549;42.286;22.688;2023-02-05T00:00:22;4.43;;;2.63;;
32038;SDS011;18549;42.286;22.688;2023-02-05T00:02:49;3.03;;;2.53;;
32038;SDS011;18549;42.286;22.688;2023-02-05T00:05:16;4.60;;;3.23;;
32038;SDS011;18549;42.286;22.688;2023-02-05T00:07:43;5.50;;;4.70;;
32038;SDS011;18549;42.286;22.688;2023-02-05T00:10:10;6.03;;;3.67;;
32038;SDS011;18549;42.286;22.688;2023-02-05T00:12:38;4.47;;;2.97;;
32038;SDS011;18549;42.286;22.688;2023-02-05T00:15:05;4.23;;;3.40;;
32038;SDS011;18549;42.286;22.688;2023-02-05T00:17:33;5.30;;;3.30;;
32038;SDS011;18549;42.286;22.688;2023-02-05T00:20:00;3.77;;;2.80;;
32038;SDS011;18549;42.286;22.688;2023-02-05T00:22:27;3.90;;;2.90;;
32038;SDS011;18549;42.286;22.688;2023-02-05T00:24:53;6.80;;;3.97;;
32038;SDS011;18549;42.286;22.688;2023-02-05T00:27:20;5.73;;;4.10;;
32038;SDS011;18549;42.286;22.688;2023-02-05T00:29:51;4.50;;;3.67;;
32038;SDS011;18549;42.286;22.688;2023-02-05T00:32:18;5.83;;;4.00;;
32038;SDS011;18549;42.286;22.688;2023-02-05T00:34:45;5.27;;;3.73;;
32038;SDS011;18549;42.286;22.688;2023-02-05T00:37:12;7.03;;;5.37;;
32038;SDS011;18549;42.286;22.688;2023-02-05T00:39:39;11.37;;;6.03;;
32038;SDS011;18549;42.286;22.688;2023-02-05T00:42:06;11.60;;;5.97;;
32038;SDS011;18549;42.286;22.688;2023-02-05T00:44:32;9.67;;;5.30;;
32038;SDS011;18549;42.286;22.688;2023-02-05T00:47:01;12.60;;;6.00;;
32038;SDS011;18549;42.286;22.688;2023-02-05T00:49:27;8.03;;;5.73;;
32038;SDS011;18549;42.286;22.688;2023-02-05T00:51:54;5.63;;;4.43;;
32038;SDS011;18549;42.286;22.688;2023-02-05T00:54:21;6.60;;;4.40;;
32038;SDS011;18549;42.286;22.688;2023-02-05T00:56:48;8.87;;;5.27;;
32038;SDS011;18549;42.286;22.688;2023-02-05T00:59:15;8.50;;;4.93;;
32038;SDS011;18549;42.286;22.688;2023-02-05T01:01:41;7.63;;;4.90;;
32038;SDS011;18549;42.286;22.688;2023-02-05T01:04:09;9.20;;;4.87;;
32038;SDS011;18549;42.286;22.688;2023-02-05T01:06:36;6.10;;;2.77;;
32038;SDS011;18549;42.286;22.688;2023-02-05T01:09:03;6.30;;;3.77;;
32038;SDS011;18549;42.286;22.688;2023-02-05T01:11:30;4.40;;;3.17;;
32038;SDS011;18549;42.286;22.688;2023-02-05T01:16:24;4.00;;;3.13;;
32038;SDS011;18549;42.286;22.688;2023-02-05T01:18:51;3.40;;;2.70;;
32038;SDS011;18549;42.286;22.688;2023-02-05T01:21:22;5.33;;;3.10;;
32038;SDS011;18549;42.286;22.688;2023-02-05T01:23:49;4.50;;;3.60;;
32038;SDS011;18549;42.286;22.688;2023-02-05T01:26:16;6.30;;;3.80;;
32038;SDS011;18549;42.286;22.688;2023-02-05T01:28:43;3.87;;;3.47;;
32038;SDS011;18549;42.286;22.688;2023-02-05T01:31:10;4.23;;;2.87;;
32038;SDS011;18549;42.286;22.688;2023-02-05T01:33:37;3.83;;;3.33;;
32038;SDS011;18549;42.286;22.688;2023-02-05T01:36:04;4.17;;;2.83;;
32038;SDS011;18549;42.286;22.688;2023-02-05T01:38:32;4.10;;;2.80;;
32038;SDS011;18549;42.286;22.688;2023-02-05T01:40:59;7.30;;;3.60;;
32038;SDS011;18549;42.286;22.688;2023-02-05T01:43:26;5.03;;;3.50;;
32038;SDS011;18549;42.286;22.688;2023-02-05T01:48:47;4.60;;;3.00;;
32038;SDS011;18549;42.286;22.688;2023-02-05T01:51:19;3.80;;;3.13;;
32038;SDS011;18549;42.286;22.688;2023-02-05T01:53:49;7.10;;;4.40;;
32038;SDS011;18549;42.286;22.688;2023-02-05T01:56:19;5.23;;;3.60;;
32038;SDS011;18549;42.286;22.688;2023-02-05T01:58:48;5.43;;;3.40;;
32038;SDS011;18549;42.286;22.688;2023-02-05T02:01:18;5.90;;;3.17;;
32038;SDS011;18549;42.286;22.688;2023-02-05T02:03:45;5.73;;;3.10;;
32038;SDS011;18549;42.286;22.688;2023-02-05T02:06:14;5.73;;;3.37;;
32038;SDS011;18549;42.286;22.688;2023-02-05T02:08:41;4.37;;;2.77;;
32038;SDS011;18549;42.286;22.688;2023-02-05T02:11:09;5.47;;;2.93;;
32038;SDS011;18549;42.286;22.688;2023-02-05T02:13:41;13.07;;;3.40;;
32038;SDS011;18549;42.286;22.688;2023-02-05T02:16:11;4.57;;;2.97;;
32038;SDS011;18549;42.286;22.688;2023-02-05T02:18:37;11.57;;;4.10;;
32038;SDS011;18549;42.286;22.688;2023-02-05T02:24:27;9.03;;;4.97;;
32038;SDS011;18549;42.286;22.688;2023-02-05T02:27:32;5.67;;;4.30;;
32038;SDS011;18549;42.286;22.688;2023-02-05T02:30:10;12.03;;;6.53;;
32038;SDS011;18549;42.286;22.688;2023-02-05T02:32:41;10.20;;;4.30;;
32038;SDS011;18549;42.286;22.688;2023-02-05T02:35:16;9.63;;;4.90;;
32038;SDS011;18549;42.286;22.688;2023-02-05T02:37:48;6.87;;;4.00;;
32038;SDS011;18549;42.286;22.688;2023-02-05T02:40:23;6.03;;;4.13;;
32038;SDS011;18549;42.286;22.688;2023-02-05T02:43:00;3.13;;;2.83;;
32038;SDS011;18549;42.286;22.688;2023-02-05T02:45:33;5.00;;;3.17;;
32038;SDS011;18549;42.286;22.688;2023-02-05T02:48:02;3.57;;;3.00;;
32038;SDS011;18549;42.286;22.688;2023-02-05T02:50:32;6.13;;;3.70;;
32038;SDS011;18549;42.286;22.688;2023-02-05T02:53:02;5.23;;;3.10;;
32038;SDS011;18549;42.286;22.688;2023-02-05T02:55:34;4.20;;;3.17;;
32038;SDS011;18549;42.286;22.688;2023-02-05T02:58:09;5.17;;;3.13;;
32038;SDS011;18549;42.286;22.688;2023-02-05T03:00:40;4.27;;;2.77;;
32038;SDS011;18549;42.286;22.688;2023-02-05T03:03:10;4.40;;;3.87;;
32038;SDS011;18549;42.286;22.688;2023-02-05T03:05:41;5.63;;;3.70;;
32038;SDS011;18549;42.286;22.688;2023-02-05T03:08:11;5.73;;;3.30;;
32038;SDS011;18549;42.286;22.688;2023-02-05T03:10:44;3.77;;;2.93;;
32038;SDS011;18549;42.286;22.688;2023-02-05T03:13:15;5.17;;;3.10;;
32038;SDS011;18549;42.286;22.688;2023-02-05T03:15:43;7.33;;;3.40;;
32038;SDS011;18549;42.286;22.688;2023-02-05T03:18:12;3.83;;;2.50;;
32038;SDS011;18549;42.286;22.688;2023-02-05T03:20:40;4.00;;;2.90;;
32038;SDS011;18549;42.286;22.688;2023-02-05T03:23:10;5.17;;;2.97;;
32038;SDS011;18549;42.286;22.688;2023-02-05T03:25:37;5.10;;;3.10;;
32038;SDS011;18549;42.286;22.688;2023-02-05T03:28:04;5.73;;;2.63;;
32038;SDS011;18549;42.286;22.688;2023-02-05T03:30:34;2.60;;;2.30;;
32038;SDS011;18549;42.286;22.688;2023-02-05T03:33:10;3.57;;;3.10;;
32038;SDS011;18549;42.286;22.688;2023-02-05T03:35:49;5.43;;;3.40;;
32038;SDS011;18549;42.286;22.688;2023-02-05T03:38:28;5.07;;;4.07;;
32038;SDS011;18549;42.286;22.688;2023-02-05T03:41:11;6.07;;;4.00;;
32038;SDS011;18549;42.286;22.688;2023-02-05T03:43:45;10.50;;;5.27;;
32038;SDS011;18549;42.286;22.688;2023-02-05T03:46:24;10.93;;;6.20;;
32038;SDS011;18549;42.286;22.688;2023-02-05T03:49:00;16.93;;;6.03;;
32038;SDS011;18549;42.286;22.688;2023-02-05T03:51:33;15.20;;;6.57;;
32038;SDS011;18549;42.286;22.688;2023-02-05T03:54:07;13.63;;;5.33;;
32038;SDS011;18549;42.286;22.688;2023-02-05T03:56:41;11.93;;;5.00;;
32038;SDS011;18549;42.286;22.688;2023-02-05T03:59:13;5.73;;;4.40;;
32038;SDS011;18549;42.286;22.688;2023-02-05T04:01:43;12.97;;;5.37;;
32038;SDS011;18549;42.286;22.688;2023-02-05T04:04:10;3.77;;;2.73;;
32038;SDS011;18549;42.286;22.688;2023-02-05T04:06:37;5.00;;;3.37;;
32038;SDS011;18549;42.286;22.688;2023-02-05T04:09:04;4.13;;;2.73;;
32038;SDS011;18549;42.286;22.688;2023-02-05T04:11:34;4.37;;;3.50;;
32038;SDS011;18549;42.286;22.688;2023-02-05T04:14:02;7.93;;;4.67;;
32038;SDS011;18549;42.286;22.688;2023-02-05T04:16:29;5.83;;;3.77;;
32038;SDS011;18549;42.286;22.688;2023-02-05T04:18:57;6.50;;;3.83;;
32038;SDS011;18549;42.286;22.688;2023-02-05T04:21:24;4.40;;;3.30;;
32038;SDS011;18549;42.286;22.688;2023-02-05T04:23:51;3.97;;;2.93;;
32038;SDS011;18549;42.286;22.688;2023-02-05T04:26:17;3.10;;;2.60;;
32038;SDS011;18549;42.286;22.688;2023-02-05T04:28:44;4.83;;;3.07;;
32038;SDS011;18549;42.286;22.688;2023-02-05T04:31:11;8.03;;;3.13;;
32038;SDS011;18549;42.286;22.688;2023-02-05T04:33:38;5.57;;;3.33;;
32038;SDS011;18549;42.286;22.688;2023-02-05T04:36:07;3.23;;;2.93;;
32038;SDS011;18549;42.286;22.688;2023-02-05T04:38:34;3.57;;;2.73;;
32038;SDS011;18549;42.286;22.688;2023-02-05T04:41:01;9.00;;;4.73;;
32038;SDS011;18549;42.286;22.688;2023-02-05T04:43:28;5.50;;;4.17;;
32038;SDS011;18549;42.286;22.688;2023-02-05T04:45:54;5.63;;;4.37;;
32038;SDS011;18549;42.286;22.688;2023-02-05T04:48:21;9.13;;;5.27;;
32038;SDS011;18549;42.286;22.688;2023-02-05T04:50:48;5.90;;;3.97;;
32038;SDS011;18549;42.286;22.688;2023-02-05T04:53:16;5.00;;;2.77;;
32038;SDS011;18549;42.286;22.688;2023-02-05T04:55:43;4.43;;;3.20;;
32038;SDS011;18549;42.286;22.688;2023-02-05T04:58:10;4.40;;;3.30;;
32038;SDS011;18549;42.286;22.688;2023-02-05T05:00:36;5.07;;;3.70;;
32038;SDS011;18549;42.286;22.688;2023-02-05T05:03:03;9.63;;;5.73;;
32038;SDS011;18549;42.286;22.688;2023-02-05T05:05:30;7.43;;;4.47;;
32038;SDS011;18549;42.286;22.688;2023-02-05T05:07:58;4.90;;;4.00;;
32038;SDS011;18549;42.286;22.688;2023-02-05T05:10:26;6.13;;;3.00;;
32038;SDS011;18549;42.286;22.688;2023-02-05T05:12:53;3.10;;;2.80;;
32038;SDS011;18549;42.286;22.688;2023-02-05T05:15:20;9.73;;;4.00;;
32038;SDS011;18549;42.286;22.688;2023-02-05T05:17:47;4.30;;;3.47;;
32038;SDS011;18549;42.286;22.688;2023-02-05T05:20:13;6.00;;;3.63;;
32038;SDS011;18549;42.286;22.688;2023-02-05T05:22:40;6.77;;;4.43;;
32038;SDS011;18549;42.286;22.688;2023-02-05T05:25:07;4.30;;;3.30;;
32038;SDS011;18549;42.286;22.688;2023-02-05T05:27:35;7.53;;;3.40;;
32038;SDS011;18549;42.286;22.688;2023-02-05T05:30:02;6.33;;;4.43;;
32038;SDS011;18549;42.286;22.688;2023-02-05T05:32:29;2.87;;;2.40;;
32038;SDS011;18549;42.286;22.688;2023-02-05T05:34:56;5.67;;;3.50;;
32038;SDS011;18549;42.286;22.688;2023-02-05T05:37:23;8.03;;;3.17;;
32038;SDS011;18549;42.286;22.688;2023-02-05T05:39:50;7.67;;;4.47;;
32038;SDS011;18549;42.286;22.688;2023-02-05T05:42:35;6.60;;;4.57;;
32038;SDS011;18549;42.286;22.688;2023-02-05T05:45:32;5.77;;;4.23;;
32038;SDS011;18549;42.286;22.688;2023-02-05T05:47:58;5.93;;;3.13;;
32038;SDS011;18549;42.286;22.688;2023-02-05T05:50:25;5.40;;;3.67;;
32038;SDS011;18549;42.286;22.688;2023-02-05T05:52:52;16.67;;;6.50;;
32038;SDS011;18549;42.286;22.688;2023-02-05T05:55:19;6.57;;;4.70;;
32038;SDS011;18549;42.286;22.688;2023-02-05T05:57:47;7.13;;;3.97;;
32038;SDS011;18549;42.286;22.688;2023-02-05T06:00:14;4.07;;;3.03;;
32038;SDS011;18549;42.286;22.688;2023-02-05T06:02:41;7.80;;;4.70;;
32038;SDS011;18549;42.286;22.688;2023-02-05T06:05:08;4.30;;;3.53;;
32038;SDS011;18549;42.286;22.688;2023-02-05T06:07:35;6.37;;;3.73;;
32038;SDS011;18549;42.286;22.688;2023-02-05T06:10:03;3.30;;;2.97;;
32038;SDS011;18549;42.286;22.688;2023-02-05T06:12:30;4.30;;;3.27;;
32038;SDS011;18549;42.286;22.688;2023-02-05T06:14:58;8.40;;;5.10;;
32038;SDS011;18549;42.286;22.688;2023-02-05T06:17:24;6.23;;;3.30;;
32038;SDS011;18549;42.286;22.688;2023-02-05T06:19:52;5.20;;;3.10;;
32038;SDS011;18549;42.286;22.688;2023-02-05T06:22:18;5.87;;;4.10;;
32038;SDS011;18549;42.286;22.688;2023-02-05T06:24:45;3.67;;;3.23;;
32038;SDS011;18549;42.286;22.688;2023-02-05T06:27:12;5.50;;;4.13;;
32038;SDS011;18549;42.286;22.688;2023-02-05T06:29:39;7.77;;;4.43;;
32038;SDS011;18549;42.286;22.688;2023-02-05T06:32:07;4.27;;;3.27;;
32038;SDS011;18549;42.286;22.688;2023-02-05T06:34:34;7.90;;;4.77;;
32038;SDS011;18549;42.286;22.688;2023-02-05T06:37:01;5.90;;;5.07;;
32038;SDS011;18549;42.286;22.688;2023-02-05T06:39:28;5.90;;;4.90;;
32038;SDS011;18549;42.286;22.688;2023-02-05T06:41:55;7.63;;;3.90;;
32038;SDS011;18549;42.286;22.688;2023-02-05T06:44:22;5.33;;;3.23;;
32038;SDS011;18549;42.286;22.688;2023-02-05T06:46:49;14.50;;;4.63;;
32038;SDS011;18549;42.286;22.688;2023-02-05T06:49:17;6.80;;;4.87;;
32038;SDS011;18549;42.286;22.688;2023-02-05T06:51:44;5.97;;;3.87;;
32038;SDS011;18549;42.286;22.688;2023-02-05T06:54:11;5.57;;;3.43;;
32038;SDS011;18549;42.286;22.688;2023-02-05T06:56:37;9.53;;;5.87;;
32038;SDS011;18549;42.286;22.688;2023-02-05T06:59:04;11.93;;;7.07;;
32038;SDS011;18549;42.286;22.688;2023-02-05T07:01:31;8.87;;;5.77;;
32038;SDS011;18549;42.286;22.688;2023-02-05T07:03:58;5.10;;;3.80;;
32038;SDS011;18549;42.286;22.688;2023-02-05T07:06:26;4.53;;;3.70;;
32038;SDS011;18549;42.286;22.688;2023-02-05T07:08:53;8.03;;;5.30;;
32038;SDS011;18549;42.286;22.688;2023-02-05T07:11:21;4.77;;;4.27;;
32038;SDS011;18549;42.286;22.688;2023-02-05T07:13:48;5.93;;;3.40;;
32038;SDS011;18549;42.286;22.688;2023-02-05T07:16:15;8.90;;;5.10;;
32038;SDS011;18549;42.286;22.688;2023-02-05T07:18:41;5.90;;;5.30;;
32038;SDS011;18549;42.286;22.688;2023-02-05T07:21:09;8.60;;;5.60;;
32038;SDS011;18549;42.286;22.688;2023-02-05T07:23:41;4.03;;;3.00;;
32038;SDS011;18549;42.286;22.688;2023-02-05T07:26:08;14.10;;;10.30;;
32038;SDS011;18549;42.286;22.688;2023-02-05T07:28:36;13.03;;;8.50;;
32038;SDS011;18549;42.286;22.688;2023-02-05T07:31:03;7.87;;;5.20;;
32038;SDS011;18549;42.286;22.688;2023-02-05T07:33:31;18.50;;;12.87;;
32038;SDS011;18549;42.286;22.688;2023-02-05T07:36:00;5.30;;;4.07;;
32038;SDS011;18549;42.286;22.688;2023-02-05T07:38:28;5.47;;;3.97;;
32038;SDS011;18549;42.286;22.688;2023-02-05T07:40:56;6.03;;;3.80;;
32038;SDS011;18549;42.286;22.688;2023-02-05T07:43:23;4.87;;;3.70;;
32038;SDS011;18549;42.286;22.688;2023-02-05T07:45:54;4.23;;;3.30;;
32038;SDS011;18549;42.286;22.688;2023-02-05T07:48:21;6.00;;;5.20;;
32038;SDS011;18549;42.286;22.688;2023-02-05T07:50:48;5.43;;;3.93;;
32038;SDS011;18549;42.286;22.688;2023-02-05T07:53:15;57.83;;;29.53;;
32038;SDS011;18549;42.286;22.688;2023-02-05T07:55:42;9.57;;;6.13;;
32038;SDS011;18549;42.286;22.688;2023-02-05T07:58:10;22.73;;;14.37;;
32038;SDS011;18549;42.286;22.688;2023-02-05T08:00:37;15.03;;;9.17;;
32038;SDS011;18549;42.286;22.688;2023-02-05T08:03:04;10.17;;;5.63;;
32038;SDS011;18549;42.286;22.688;2023-02-05T08:05:31;7.00;;;4.77;;
32038;SDS011;18549;42.286;22.688;2023-02-05T08:07:58;18.37;;;10.70;;
32038;SDS011;18549;42.286;22.688;2023-02-05T08:10:25;18.03;;;9.00;;
32038;SDS011;18549;42.286;22.688;2023-02-05T08:12:51;14.20;;;8.70;;
32038;SDS011;18549;42.286;22.688;2023-02-05T08:15:19;9.80;;;6.67;;
32038;SDS011;18549;42.286;22.688;2023-02-05T08:17:46;21.07;;;13.07;;
32038;SDS011;18549;42.286;22.688;2023-02-05T08:20:13;6.80;;;5.13;;
32038;SDS011;18549;42.286;22.688;2023-02-05T08:22:41;9.33;;;6.10;;
32038;SDS011;18549;42.286;22.688;2023-02-05T08:25:11;8.57;;;4.83;;
32038;SDS011;18549;42.286;22.688;2023-02-05T08:27:39;56.23;;;25.73;;
32038;SDS011;18549;42.286;22.688;2023-02-05T08:30:11;62.23;;;26.73;;
32038;SDS011;18549;42.286;22.688;2023-02-05T08:32:41;51.73;;;24.77;;
32038;SDS011;18549;42.286;22.688;2023-02-05T08:35:11;64.17;;;31.43;;
32038;SDS011;18549;42.286;22.688;2023-02-05T08:37:38;59.00;;;33.30;;
32038;SDS011;18549;42.286;22.688;2023-02-05T08:40:05;31.07;;;19.23;;
32038;SDS011;18549;42.286;22.688;2023-02-05T08:42:33;29.67;;;16.07;;
32038;SDS011;18549;42.286;22.688;2023-02-05T08:45:00;23.03;;;12.80;;
32038;SDS011;18549;42.286;22.688;2023-02-05T08:47:27;32.70;;;15.63;;
32038;SDS011;18549;42.286;22.688;2023-02-05T08:49:56;37.83;;;20.70;;
32038;SDS011;18549;42.286;22.688;2023-02-05T08:52:26;13.87;;;8.53;;
32038;SDS011;18549;42.286;22.688;2023-02-05T08:54:52;17.93;;;8.77;;
32038;SDS011;18549;42.286;22.688;2023-02-05T08:57:19;20.37;;;12.97;;
32038;SDS011;18549;42.286;22.688;2023-02-05T08:59:46;24.67;;;11.80;;
32038;SDS011;18549;42.286;22.688;2023-02-05T09:02:13;18.93;;;13.20;;
32038;SDS011;18549;42.286;22.688;2023-02-05T09:04:41;10.80;;;8.70;;
32038;SDS011;18549;42.286;22.688;2023-02-05T09:07:09;18.43;;;12.87;;
32038;SDS011;18549;42.286;22.688;2023-02-05T09:09:36;18.87;;;9.97;;
32038;SDS011;18549;42.286;22.688;2023-02-05T09:12:03;14.90;;;8.47;;
32038;SDS011;18549;42.286;22.688;2023-02-05T09:14:30;17.87;;;10.67;;
32038;SDS011;18549;42.286;22.688;2023-02-05T09:17:00;37.53;;;21.53;;
32038;SDS011;18549;42.286;22.688;2023-02-05T09:19:27;11.27;;;7.47;;
32038;SDS011;18549;42.286;22.688;2023-02-05T09:21:55;17.33;;;10.03;;
32038;SDS011;18549;42.286;22.688;2023-02-05T09:24:23;15.67;;;10.20;;
32038;SDS011;18549;42.286;22.688;2023-02-05T09:26:50;17.37;;;10.43;;
32038;SDS011;18549;42.286;22.688;2023-02-05T09:29:17;14.17;;;9.43;;
32038;SDS011;18549;42.286;22.688;2023-02-05T09:31:43;14.83;;;7.80;;
32038;SDS011;18549;42.286;22.688;2023-02-05T09:34:10;15.73;;;10.70;;
32038;SDS011;18549;42.286;22.688;2023-02-05T09:36:38;23.37;;;14.77;;
32038;SDS011;18549;42.286;22.688;2023-02-05T09:39:05;9.97;;;7.17;;
32038;SDS011;18549;42.286;22.688;2023-02-05T09:41:35;17.90;;;9.37;;
32038;SDS011;18549;42.286;22.688;2023-02-05T09:44:11;11.50;;;7.20;;
32038;SDS011;18549;42.286;22.688;2023-02-05T09:46:45;16.47;;;10.80;;
32038;SDS011;18549;42.286;22.688;2023-02-05T09:49:20;19.23;;;11.30;;
32038;SDS011;18549;42.286;22.688;2023-02-05T09:51:55;17.57;;;11.00;;
32038;SDS011;18549;42.286;22.688;2023-02-05T09:54:27;15.47;;;9.20;;
32038;SDS011;18549;42.286;22.688;2023-02-05T09:56:59;19.43;;;10.90;;
32038;SDS011;18549;42.286;22.688;2023-02-05T09:59:29;29.77;;;16.97;;
32038;SDS011;18549;42.286;22.688;2023-02-05T10:01:58;23.20;;;13.33;;
32038;SDS011;18549;42.286;22.688;2023-02-05T10:04:26;16.30;;;10.67;;
32038;SDS011;18549;42.286;22.688;2023-02-05T10:09:58;14.57;;;10.93;;
32038;SDS011;18549;42.286;22.688;2023-02-05T10:12:42;14.97;;;9.60;;
32038;SDS011;18549;42.286;22.688;2023-02-05T10:15:31;16.97;;;8.97;;
32038;SDS011;18549;42.286;22.688;2023-02-05T10:18:16;17.67;;;9.90;;
32038;SDS011;18549;42.286;22.688;2023-02-05T10:20:55;13.57;;;10.07;;
32038;SDS011;18549;42.286;22.688;2023-02-05T10:23:35;23.20;;;13.90;;
32038;SDS011;18549;42.286;22.688;2023-02-05T10:26:14;16.63;;;10.27;;
32038;SDS011;18549;42.286;22.688;2023-02-05T10:28:50;14.33;;;9.27;;
32038;SDS011;18549;42.286;22.688;2023-02-05T10:31:39;15.80;;;10.80;;
32038;SDS011;18549;42.286;22.688;2023-02-05T10:34:17;14.13;;;9.40;;
32038;SDS011;18549;42.286;22.688;2023-02-05T10:36:48;12.27;;;8.03;;
32038;SDS011;18549;42.286;22.688;2023-02-05T10:39:17;18.77;;;10.43;;
32038;SDS011;18549;42.286;22.688;2023-02-05T10:41:46;15.97;;;7.50;;
32038;SDS011;18549;42.286;22.688;2023-02-05T10:44:19;21.53;;;9.70;;
32038;SDS011;18549;42.286;22.688;2023-02-05T10:46:53;12.83;;;8.87;;
32038;SDS011;18549;42.286;22.688;2023-02-05T10:49:25;15.27;;;9.07;;
32038;SDS011;18549;42.286;22.688;2023-02-05T10:51:57;16.07;;;10.67;;
32038;SDS011;18549;42.286;22.688;2023-02-05T10:54:25;20.13;;;11.57;;
32038;SDS011;18549;42.286;22.688;2023-02-05T10:56:54;29.40;;;15.10;;
32038;SDS011;18549;42.286;22.688;2023-02-05T10:59:24;31.37;;;17.63;;
32038;SDS011;18549;42.286;22.688;2023-02-05T11:01:53;38.33;;;18.23;;
32038;SDS011;18549;42.286;22.688;2023-02-05T11:04:24;20.57;;;13.07;;
32038;SDS011;18549;42.286;22.688;2023-02-05T11:06:58;15.03;;;10.10;;
32038;SDS011;18549;42.286;22.688;2023-02-05T11:09:31;17.23;;;10.47;;
32038;SDS011;18549;42.286;22.688;2023-02-05T11:12:00;12.00;;;8.50;;
32038;SDS011;18549;42.286;22.688;2023-02-05T11:14:33;12.50;;;8.37;;
32038;SDS011;18549;42.286;22.688;2023-02-05T11:17:03;11.87;;;6.97;;
32038;SDS011;18549;42.286;22.688;2023-02-05T11:19:34;15.03;;;8.87;;
32038;SDS011;18549;42.286;22.688;2023-02-05T11:22:01;15.53;;;9.77;;
32038;SDS011;18549;42.286;22.688;2023-02-05T11:24:30;11.77;;;7.27;;
32038;SDS011;18549;42.286;22.688;2023-02-05T11:29:53;11.00;;;7.70;;
32038;SDS011;18549;42.286;22.688;2023-02-05T11:32:21;11.37;;;7.50;;
32038;SDS011;18549;42.286;22.688;2023-02-05T11:35:07;10.23;;;7.07;;
32038;SDS011;18549;42.286;22.688;2023-02-05T11:37:42;21.33;;;7.73;;
32038;SDS011;18549;42.286;22.688;2023-02-05T11:40:16;8.00;;;6.03;;
32038;SDS011;18549;42.286;22.688;2023-02-05T11:42:46;17.00;;;8.30;;
32038;SDS011;18549;42.286;22.688;2023-02-05T11:45:20;17.93;;;9.60;;
32038;SDS011;18549;42.286;22.688;2023-02-05T11:47:49;7.97;;;6.03;;
32038;SDS011;18549;42.286;22.688;2023-02-05T11:50:21;20.83;;;11.00;;
32038;SDS011;18549;42.286;22.688;2023-02-05T11:52:49;11.00;;;6.57;;
32038;SDS011;18549;42.286;22.688;2023-02-05T11:55:24;9.97;;;6.63;;
32038;SDS011;18549;42.286;22.688;2023-02-05T11:57:57;8.03;;;5.70;;
32038;SDS011;18549;42.286;22.688;2023-02-05T12:00:27;21.13;;;11.40;;
32038;SDS011;18549;42.286;22.688;2023-02-05T12:03:01;13.60;;;6.80;;
32038;SDS011;18549;42.286;22.688;2023-02-05T12:05:43;6.63;;;4.70;;
32038;SDS011;18549;42.286;22.688;2023-02-05T12:08:19;8.80;;;4.93;;
32038;SDS011;18549;42.286;22.688;2023-02-05T12:10:54;6.57;;;5.23;;
32038;SDS011;18549;42.286;22.688;2023-02-05T12:13:31;8.83;;;4.23;;
32038;SDS011;18549;42.286;22.688;2023-02-05T12:16:12;10.80;;;6.47;;
32038;SDS011;18549;42.286;22.688;2023-02-05T12:18:45;8.20;;;4.77;;
32038;SDS011;18549;42.286;22.688;2023-02-05T12:21:22;9.13;;;5.63;;
32038;SDS011;18549;42.286;22.688;2023-02-05T12:24:03;11.73;;;6.93;;
32038;SDS011;18549;42.286;22.688;2023-02-05T12:26:44;24.97;;;13.43;;
32038;SDS011;18549;42.286;22.688;2023-02-05T12:29:19;19.80;;;11.10;;
32038;SDS011;18549;42.286;22.688;2023-02-05T12:32:05;7.57;;;5.67;;
32038;SDS011;18549;42.286;22.688;2023-02-05T12:34:42;11.13;;;6.93;;
32038;SDS011;18549;42.286;22.688;2023-02-05T12:37:25;11.63;;;7.23;;
32038;SDS011;18549;42.286;22.688;2023-02-05T12:40:02;14.27;;;8.63;;
32038;SDS011;18549;42.286;22.688;2023-02-05T12:42:43;15.53;;;5.70;;
32038;SDS011;18549;42.286;22.688;2023-02-05T12:45:25;9.37;;;5.63;;
32038;SDS011;18549;42.286;22.688;2023-02-05T12:48:10;10.17;;;6.57;;
32038;SDS011;18549;42.286;22.688;2023-02-05T12:51:00;16.53;;;9.37;;
32038;SDS011;18549;42.286;22.688;2023-02-05T12:53:38;47.00;;;23.37;;
32038;SDS011;18549;42.286;22.688;2023-02-05T12:59:10;14.77;;;10.60;;
32038;SDS011;18549;42.286;22.688;2023-02-05T13:01:43;24.13;;;12.07;;
32038;SDS011;18549;42.286;22.688;2023-02-05T13:04:20;20.23;;;12.00;;
32038;SDS011;18549;42.286;22.688;2023-02-05T13:06:53;49.53;;;24.13;;
32038;SDS011;18549;42.286;22.688;2023-02-05T13:09:28;19.47;;;12.70;;
32038;SDS011;18549;42.286;22.688;2023-02-05T13:12:00;26.93;;;16.07;;
32038;SDS011;18549;42.286;22.688;2023-02-05T13:14:30;22.13;;;13.47;;
32038;SDS011;18549;42.286;22.688;2023-02-05T13:17:03;22.27;;;12.47;;
32038;SDS011;18549;42.286;22.688;2023-02-05T13:19:37;25.67;;;15.47;;
32038;SDS011;18549;42.286;22.688;2023-02-05T13:22:11;31.70;;;14.97;;
32038;SDS011;18549;42.286;22.688;2023-02-05T13:24:59;25.83;;;13.20;;
32038;SDS011;18549;42.286;22.688;2023-02-05T13:27:48;24.03;;;14.30;;
32038;SDS011;18549;42.286;22.688;2023-02-05T13:30:38;13.13;;;8.80;;
32038;SDS011;18549;42.286;22.688;2023-02-05T13:33:09;13.93;;;10.00;;
32038;SDS011;18549;42.286;22.688;2023-02-05T13:35:40;15.43;;;9.90;;
32038;SDS011;18549;42.286;22.688;2023-02-05T13:44:09;32.30;;;10.53;;
32038;SDS011;18549;42.286;22.688;2023-02-05T13:47:01;27.30;;;14.87;;
32038;SDS011;18549;42.286;22.688;2023-02-05T13:49:54;29.10;;;16.90;;
32038;SDS011;18549;42.286;22.688;2023-02-05T13:53:00;24.30;;;12.57;;
32038;SDS011;18549;42.286;22.688;2023-02-05T13:55:59;24.67;;;14.40;;
32038;SDS011;18549;42.286;22.688;2023-02-05T13:58:35;48.10;;;23.50;;
32038;SDS011;18549;42.286;22.688;2023-02-05T14:01:12;27.03;;;14.70;;
32038;SDS011;18549;42.286;22.688;2023-02-05T14:03:44;24.73;;;14.93;;
32038;SDS011;18549;42.286;22.688;2023-02-05T14:06:21;35.43;;;17.87;;
32038;SDS011;18549;42.286;22.688;2023-02-05T14:08:57;36.63;;;18.93;;
32038;SDS011;18549;42.286;22.688;2023-02-05T14:11:26;18.63;;;11.20;;
32038;SDS011;18549;42.286;22.688;2023-02-05T14:14:18;30.83;;;15.57;;
32038;SDS011;18549;42.286;22.688;2023-02-05T14:16:48;17.60;;;9.87;;
32038;SDS011;18549;42.286;22.688;2023-02-05T14:19:16;26.97;;;14.17;;
32038;SDS011;18549;42.286;22.688;2023-02-05T14:24:42;39.77;;;17.20;;
32038;SDS011;18549;42.286;22.688;2023-02-05T14:30:38;26.50;;;14.37;;
32038;SDS011;18549;42.286;22.688;2023-02-05T14:33:26;24.70;;;12.53;;
32038;SDS011;18549;42.286;22.688;2023-02-05T14:35:55;17.50;;;9.07;;
32038;SDS011;18549;42.286;22.688;2023-02-05T14:38:24;17.90;;;8.37;;
32038;SDS011;18549;42.286;22.688;2023-02-05T14:41:02;13.90;;;8.90;;
32038;SDS011;18549;42.286;22.688;2023-02-05T14:43:32;10.40;;;7.60;;
32038;SDS011;18549;42.286;22.688;2023-02-05T14:46:02;19.47;;;10.57;;
32038;SDS011;18549;42.286;22.688;2023-02-05T14:48:32;20.07;;;11.10;;
32038;SDS011;18549;42.286;22.688;2023-02-05T14:51:05;13.43;;;8.67;;
32038;SDS011;18549;42.286;22.688;2023-02-05T14:53:34;20.40;;;10.27;;
32038;SDS011;18549;42.286;22.688;2023-02-05T14:56:05;19.40;;;9.10;;
32038;SDS011;18549;42.286;22.688;2023-02-05T14:58:33;19.77;;;11.23;;
32038;SDS011;18549;42.286;22.688;2023-02-05T15:04:13;20.73;;;10.77;;
32038;SDS011;18549;42.286;22.688;2023-02-05T15:06:47;17.87;;;8.80;;
32038;SDS011;18549;42.286;22.688;2023-02-05T15:09:15;20.40;;;11.20;;
32038;SDS011;18549;42.286;22.688;2023-02-05T15:11:48;18.10;;;10.37;;
32038;SDS011;18549;42.286;22.688;2023-02-05T15:14:38;43.87;;;20.17;;
32038;SDS011;18549;42.286;22.688;2023-02-05T15:20:17;42.63;;;19.80;;
32038;SDS011;18549;42.286;22.688;2023-02-05T15:25:52;19.17;;;11.43;;